Terminal Aerodrome Forecast
Issued by NWS Wakefield, VA

Home | Current Version | Previous Version | Text Only | Print | Product List | Glossary On
Versions: 1 2 3 4 5 6 7 8 9 10 11 12 13 14 15 16 17 18 19 20 21 22
000
FTUS41 KAKQ 262000 AAA
TAFORF
TAF AMD
KORF 262001Z 2620/2718 36013G20KT P6SM OVC015
      TEMPO 2620/2624 4SM BR OVC008
     FM270000 36013G20KT 4SM -RA BR OVC005
     FM270800 36018G25KT 2SM -SN BR OVC008
     FM271200 35013G21KT P6SM OVC015
     FM271600 34010G18KT P6SM BKN050=

USA.gov is the U.S. government's official web portal to all federal, state and local government web resources and services.